Terminal Aerodrome Forecast
Issued by NWS Omaha/Valley, NE

Home | Current Version | Previous Version | Graphics & Text | Print | Product List | Glossary On
Versions: 1 2 3 4 5 6 7 8 9 10 11 12 13 14 15 16 17 18 19 20 21 22 23 24 25 26 27 28 29 30 31 32 33 34 35 36 37 38 39 40 41 42 43 44 45 46
000
FTUS43 KOAX 241130
TAFOFK
TAF
KOFK 241130Z 2412/2512 36015G25KT 1SM -SN BLSN SCT008 OVC015
      TEMPO 2412/2414 3/4SM -SN BLSN BKN008
     FM241400 35018G27KT 3SM -SN BLSN OVC015
     FM241700 34020G28KT 5SM BLSN OVC025
     FM242200 34018G26KT P6SM OVC060
     FM250200 33010KT P6SM SCT250=

USA.gov is the U.S. government's official web portal to all federal, state and local government web resources and services.